Ashburn Park, Illinois
Current Conditions -  °F | °C
As of 8:53 AM on Sunday 21 Dec 2014 (Local Time) from KMDW Reporting Station
Overcast Overcast  
Wind Chill: 27°   Ceiling: 3800
Heat Index: 34°   Visibility: 10mi
Dew Point: 27°   Wind: 8mph
Humidity: 75%   Direction: 180°S
Pressure: 30.21"   Gusts: 17mph
Location:  41.7473°N, 87.7132°W
Report Text: KMDW 211453Z 18007G15KT 10SM FEW029 OVC038 01/M03 A3021 RMK AO2 SLP242 T00111028 58003
Loading
Personal Weather Stations






























Interactive Weather Map New forecast layout! Learn more

10-Day Weather Forecast

Advertisements
Track Severe Weather on mobile